Airport Name : Campo Delio Jardim De Mattos

Other Name : Rio De Janeiro

ICAO : SBAF

IATA :

FAA :

Latitude : -22.875083

Longitude : -43.384708

Country : Brazil

Local Date and Time : 4/21/2018 6:57:00 AM

 

TAF (Terminal Aerodrome Forecast)

 

METAR (METeorological Aerodrome Report)

SBAF 210900Z 32002KT 9999 SCT015 BKN050 20/19 Q1017